sensor_id;sensor_type;location;lat;lon;timestamp;P1;durP1;ratioP1;P2;durP2;ratioP2
25091;SDS011;13082;52.374;4.946;2022-09-09T00:04:35;2.37;;;1.37;;
25091;SDS011;13082;52.374;4.946;2022-09-09T00:07:08;4.10;;;1.60;;
25091;SDS011;13082;52.374;4.946;2022-09-09T00:09:51;2.20;;;1.60;;
25091;SDS011;13082;52.374;4.946;2022-09-09T00:12:37;1.13;;;1.10;;
25091;SDS011;13082;52.374;4.946;2022-09-09T00:15:19;1.87;;;1.40;;
25091;SDS011;13082;52.374;4.946;2022-09-09T00:26:07;5.90;;;2.03;;
25091;SDS011;13082;52.374;4.946;2022-09-09T00:28:44;2.50;;;1.93;;
25091;SDS011;13082;52.374;4.946;2022-09-09T00:31:39;2.30;;;1.80;;
25091;SDS011;13082;52.374;4.946;2022-09-09T00:34:16;4.13;;;1.80;;
25091;SDS011;13082;52.374;4.946;2022-09-09T00:36:46;3.13;;;2.10;;
25091;SDS011;13082;52.374;4.946;2022-09-09T00:39:35;5.40;;;2.03;;
25091;SDS011;13082;52.374;4.946;2022-09-09T00:42:15;2.57;;;2.03;;
25091;SDS011;13082;52.374;4.946;2022-09-09T00:52:38;4.47;;;2.53;;
25091;SDS011;13082;52.374;4.946;2022-09-09T00:57:44;3.60;;;2.27;;
25091;SDS011;13082;52.374;4.946;2022-09-09T01:00:30;3.97;;;3.10;;
25091;SDS011;13082;52.374;4.946;2022-09-09T01:22:32;5.03;;;3.50;;
25091;SDS011;13082;52.374;4.946;2022-09-09T01:25:11;7.17;;;3.90;;
25091;SDS011;13082;52.374;4.946;2022-09-09T01:27:46;7.90;;;4.27;;
25091;SDS011;13082;52.374;4.946;2022-09-09T01:30:14;4.97;;;4.43;;
25091;SDS011;13082;52.374;4.946;2022-09-09T01:32:43;8.13;;;5.30;;
25091;SDS011;13082;52.374;4.946;2022-09-09T01:38:03;6.60;;;3.97;;
25091;SDS011;13082;52.374;4.946;2022-09-09T01:40:29;8.43;;;5.00;;
25091;SDS011;13082;52.374;4.946;2022-09-09T01:42:55;6.63;;;4.87;;
25091;SDS011;13082;52.374;4.946;2022-09-09T01:45:21;7.53;;;4.90;;
25091;SDS011;13082;52.374;4.946;2022-09-09T01:47:48;7.90;;;4.63;;
25091;SDS011;13082;52.374;4.946;2022-09-09T01:50:16;7.70;;;5.27;;
25091;SDS011;13082;52.374;4.946;2022-09-09T01:52:42;8.37;;;4.67;;
25091;SDS011;13082;52.374;4.946;2022-09-09T01:55:10;10.17;;;5.37;;
25091;SDS011;13082;52.374;4.946;2022-09-09T01:57:46;6.60;;;5.10;;
25091;SDS011;13082;52.374;4.946;2022-09-09T02:00:26;9.93;;;5.23;;
25091;SDS011;13082;52.374;4.946;2022-09-09T02:03:00;6.83;;;5.37;;
25091;SDS011;13082;52.374;4.946;2022-09-09T02:08:23;7.80;;;6.00;;
25091;SDS011;13082;52.374;4.946;2022-09-09T02:11:16;7.20;;;5.50;;
25091;SDS011;13082;52.374;4.946;2022-09-09T02:13:44;13.53;;;6.63;;
25091;SDS011;13082;52.374;4.946;2022-09-09T02:18:57;9.47;;;5.67;;
25091;SDS011;13082;52.374;4.946;2022-09-09T02:21:50;13.77;;;5.53;;
25091;SDS011;13082;52.374;4.946;2022-09-09T02:24:20;8.33;;;6.43;;
25091;SDS011;13082;52.374;4.946;2022-09-09T02:26:47;9.90;;;6.40;;
25091;SDS011;13082;52.374;4.946;2022-09-09T02:29:19;8.90;;;5.93;;
25091;SDS011;13082;52.374;4.946;2022-09-09T02:31:47;7.50;;;5.43;;
25091;SDS011;13082;52.374;4.946;2022-09-09T02:34:15;9.90;;;5.77;;
25091;SDS011;13082;52.374;4.946;2022-09-09T02:36:44;6.53;;;5.27;;
25091;SDS011;13082;52.374;4.946;2022-09-09T02:39:11;6.30;;;4.87;;
25091;SDS011;13082;52.374;4.946;2022-09-09T02:41:39;5.13;;;4.63;;
25091;SDS011;13082;52.374;4.946;2022-09-09T02:44:13;7.17;;;5.23;;
25091;SDS011;13082;52.374;4.946;2022-09-09T02:52:32;6.97;;;5.47;;
25091;SDS011;13082;52.374;4.946;2022-09-09T02:57:53;7.67;;;5.17;;
25091;SDS011;13082;52.374;4.946;2022-09-09T03:00:25;7.23;;;5.60;;
25091;SDS011;13082;52.374;4.946;2022-09-09T03:02:52;7.80;;;4.87;;
25091;SDS011;13082;52.374;4.946;2022-09-09T03:05:19;6.60;;;4.90;;
25091;SDS011;13082;52.374;4.946;2022-09-09T03:07:45;7.03;;;4.83;;
25091;SDS011;13082;52.374;4.946;2022-09-09T03:10:11;5.87;;;5.10;;
25091;SDS011;13082;52.374;4.946;2022-09-09T03:12:37;8.37;;;5.43;;
25091;SDS011;13082;52.374;4.946;2022-09-09T03:15:03;6.03;;;4.83;;
25091;SDS011;13082;52.374;4.946;2022-09-09T03:17:29;8.23;;;5.53;;
25091;SDS011;13082;52.374;4.946;2022-09-09T03:19:55;8.47;;;5.20;;
25091;SDS011;13082;52.374;4.946;2022-09-09T03:22:23;11.00;;;5.17;;
25091;SDS011;13082;52.374;4.946;2022-09-09T03:24:50;10.03;;;5.80;;
25091;SDS011;13082;52.374;4.946;2022-09-09T03:27:16;7.20;;;5.10;;
25091;SDS011;13082;52.374;4.946;2022-09-09T03:29:42;8.10;;;5.93;;
25091;SDS011;13082;52.374;4.946;2022-09-09T03:32:08;7.03;;;5.67;;
25091;SDS011;13082;52.374;4.946;2022-09-09T03:34:35;9.10;;;5.27;;
25091;SDS011;13082;52.374;4.946;2022-09-09T03:37:05;7.33;;;5.03;;
25091;SDS011;13082;52.374;4.946;2022-09-09T03:39:31;9.47;;;5.17;;
25091;SDS011;13082;52.374;4.946;2022-09-09T03:41:56;5.37;;;4.70;;
25091;SDS011;13082;52.374;4.946;2022-09-09T03:44:22;8.23;;;5.23;;
25091;SDS011;13082;52.374;4.946;2022-09-09T03:46:48;8.23;;;5.37;;
25091;SDS011;13082;52.374;4.946;2022-09-09T03:49:13;8.93;;;5.60;;
25091;SDS011;13082;52.374;4.946;2022-09-09T03:51:40;10.50;;;5.77;;
25091;SDS011;13082;52.374;4.946;2022-09-09T03:54:06;8.03;;;4.93;;
25091;SDS011;13082;52.374;4.946;2022-09-09T03:56:33;7.70;;;5.30;;
25091;SDS011;13082;52.374;4.946;2022-09-09T03:59:00;8.10;;;6.00;;
25091;SDS011;13082;52.374;4.946;2022-09-09T04:01:25;12.00;;;6.23;;
25091;SDS011;13082;52.374;4.946;2022-09-09T04:03:51;7.93;;;5.57;;
25091;SDS011;13082;52.374;4.946;2022-09-09T04:06:17;10.83;;;6.13;;
25091;SDS011;13082;52.374;4.946;2022-09-09T04:08:45;10.57;;;6.00;;
25091;SDS011;13082;52.374;4.946;2022-09-09T04:11:13;11.77;;;5.60;;
25091;SDS011;13082;52.374;4.946;2022-09-09T04:13:40;7.30;;;5.30;;
25091;SDS011;13082;52.374;4.946;2022-09-09T04:16:06;9.63;;;5.40;;
25091;SDS011;13082;52.374;4.946;2022-09-09T04:18:34;6.33;;;4.83;;
25091;SDS011;13082;52.374;4.946;2022-09-09T04:21:00;8.97;;;5.63;;
25091;SDS011;13082;52.374;4.946;2022-09-09T04:23:27;7.53;;;5.13;;
25091;SDS011;13082;52.374;4.946;2022-09-09T04:25:56;10.37;;;4.37;;
25091;SDS011;13082;52.374;4.946;2022-09-09T04:28:24;7.90;;;4.67;;
25091;SDS011;13082;52.374;4.946;2022-09-09T04:30:51;8.40;;;4.73;;
25091;SDS011;13082;52.374;4.946;2022-09-09T04:33:17;7.50;;;4.90;;
25091;SDS011;13082;52.374;4.946;2022-09-09T04:35:52;8.27;;;5.00;;
25091;SDS011;13082;52.374;4.946;2022-09-09T04:38:18;7.33;;;4.17;;
25091;SDS011;13082;52.374;4.946;2022-09-09T04:40:48;8.63;;;4.43;;
25091;SDS011;13082;52.374;4.946;2022-09-09T04:43:14;6.73;;;3.73;;
25091;SDS011;13082;52.374;4.946;2022-09-09T04:45:41;5.80;;;4.13;;
25091;SDS011;13082;52.374;4.946;2022-09-09T04:48:07;5.20;;;4.10;;
25091;SDS011;13082;52.374;4.946;2022-09-09T04:50:34;9.67;;;4.70;;
25091;SDS011;13082;52.374;4.946;2022-09-09T04:53:03;6.43;;;3.70;;
25091;SDS011;13082;52.374;4.946;2022-09-09T04:55:30;5.43;;;3.77;;
25091;SDS011;13082;52.374;4.946;2022-09-09T04:57:56;6.73;;;3.67;;
25091;SDS011;13082;52.374;4.946;2022-09-09T05:00:22;5.17;;;2.97;;
25091;SDS011;13082;52.374;4.946;2022-09-09T05:02:50;4.60;;;2.80;;
25091;SDS011;13082;52.374;4.946;2022-09-09T05:05:16;7.17;;;3.00;;
25091;SDS011;13082;52.374;4.946;2022-09-09T05:07:43;6.27;;;3.10;;
25091;SDS011;13082;52.374;4.946;2022-09-09T05:10:09;6.53;;;2.80;;
25091;SDS011;13082;52.374;4.946;2022-09-09T05:12:35;4.83;;;2.70;;
25091;SDS011;13082;52.374;4.946;2022-09-09T05:15:02;4.63;;;2.70;;
25091;SDS011;13082;52.374;4.946;2022-09-09T05:17:28;3.27;;;2.27;;
25091;SDS011;13082;52.374;4.946;2022-09-09T05:19:53;3.60;;;2.87;;
25091;SDS011;13082;52.374;4.946;2022-09-09T05:22:19;5.73;;;2.70;;
25091;SDS011;13082;52.374;4.946;2022-09-09T05:24:46;5.00;;;2.30;;
25091;SDS011;13082;52.374;4.946;2022-09-09T05:27:11;3.13;;;2.43;;
25091;SDS011;13082;52.374;4.946;2022-09-09T05:29:37;5.73;;;3.57;;
25091;SDS011;13082;52.374;4.946;2022-09-09T05:32:03;5.40;;;2.60;;
25091;SDS011;13082;52.374;4.946;2022-09-09T05:34:29;4.73;;;3.10;;
25091;SDS011;13082;52.374;4.946;2022-09-09T05:36:55;7.20;;;2.83;;
25091;SDS011;13082;52.374;4.946;2022-09-09T05:39:20;3.77;;;2.70;;
25091;SDS011;13082;52.374;4.946;2022-09-09T05:41:46;5.67;;;2.20;;
25091;SDS011;13082;52.374;4.946;2022-09-09T05:44:11;4.33;;;2.40;;
25091;SDS011;13082;52.374;4.946;2022-09-09T05:46:38;5.13;;;2.60;;
25091;SDS011;13082;52.374;4.946;2022-09-09T05:49:04;3.87;;;2.70;;
25091;SDS011;13082;52.374;4.946;2022-09-09T05:51:31;6.23;;;2.20;;
25091;SDS011;13082;52.374;4.946;2022-09-09T05:53:57;10.20;;;2.70;;
25091;SDS011;13082;52.374;4.946;2022-09-09T05:56:26;6.87;;;2.40;;
25091;SDS011;13082;52.374;4.946;2022-09-09T05:58:53;5.13;;;2.30;;
25091;SDS011;13082;52.374;4.946;2022-09-09T06:01:20;4.60;;;2.37;;
25091;SDS011;13082;52.374;4.946;2022-09-09T06:03:48;7.80;;;2.70;;
25091;SDS011;13082;52.374;4.946;2022-09-09T06:06:15;8.70;;;2.70;;
25091;SDS011;13082;52.374;4.946;2022-09-09T06:08:43;4.03;;;2.30;;
25091;SDS011;13082;52.374;4.946;2022-09-09T06:11:11;3.47;;;2.00;;
25091;SDS011;13082;52.374;4.946;2022-09-09T06:13:39;5.47;;;2.87;;
25091;SDS011;13082;52.374;4.946;2022-09-09T06:16:08;7.70;;;2.63;;
25091;SDS011;13082;52.374;4.946;2022-09-09T06:18:36;6.83;;;2.40;;
25091;SDS011;13082;52.374;4.946;2022-09-09T06:21:04;5.17;;;2.50;;
25091;SDS011;13082;52.374;4.946;2022-09-09T06:23:31;4.27;;;2.00;;
25091;SDS011;13082;52.374;4.946;2022-09-09T06:26:07;4.43;;;2.63;;
25091;SDS011;13082;52.374;4.946;2022-09-09T06:28:35;6.10;;;2.30;;
25091;SDS011;13082;52.374;4.946;2022-09-09T06:31:02;3.97;;;2.57;;
25091;SDS011;13082;52.374;4.946;2022-09-09T06:33:31;3.80;;;2.20;;
25091;SDS011;13082;52.374;4.946;2022-09-09T06:35:59;4.00;;;2.30;;
25091;SDS011;13082;52.374;4.946;2022-09-09T06:38:26;8.87;;;2.43;;
25091;SDS011;13082;52.374;4.946;2022-09-09T06:40:56;5.57;;;1.93;;
25091;SDS011;13082;52.374;4.946;2022-09-09T06:43:24;8.30;;;2.67;;
25091;SDS011;13082;52.374;4.946;2022-09-09T06:45:54;8.03;;;2.63;;
25091;SDS011;13082;52.374;4.946;2022-09-09T06:48:21;4.30;;;2.73;;
25091;SDS011;13082;52.374;4.946;2022-09-09T06:50:46;8.60;;;2.80;;
25091;SDS011;13082;52.374;4.946;2022-09-09T06:53:12;4.50;;;2.50;;
25091;SDS011;13082;52.374;4.946;2022-09-09T06:55:41;6.90;;;3.07;;
25091;SDS011;13082;52.374;4.946;2022-09-09T06:58:09;8.67;;;2.63;;
25091;SDS011;13082;52.374;4.946;2022-09-09T07:00:34;5.57;;;2.30;;
25091;SDS011;13082;52.374;4.946;2022-09-09T07:03:02;5.27;;;2.33;;
25091;SDS011;13082;52.374;4.946;2022-09-09T07:05:28;5.43;;;2.10;;
25091;SDS011;13082;52.374;4.946;2022-09-09T07:07:53;5.07;;;2.17;;
25091;SDS011;13082;52.374;4.946;2022-09-09T07:10:19;5.40;;;2.70;;
25091;SDS011;13082;52.374;4.946;2022-09-09T07:12:45;4.83;;;2.20;;
25091;SDS011;13082;52.374;4.946;2022-09-09T07:15:17;7.10;;;2.50;;
25091;SDS011;13082;52.374;4.946;2022-09-09T07:17:43;8.60;;;2.60;;
25091;SDS011;13082;52.374;4.946;2022-09-09T07:20:09;6.73;;;2.80;;
25091;SDS011;13082;52.374;4.946;2022-09-09T07:22:35;8.17;;;3.20;;
25091;SDS011;13082;52.374;4.946;2022-09-09T07:25:01;9.37;;;3.10;;
25091;SDS011;13082;52.374;4.946;2022-09-09T07:27:27;10.10;;;4.13;;
25091;SDS011;13082;52.374;4.946;2022-09-09T07:29:52;4.03;;;2.63;;
25091;SDS011;13082;52.374;4.946;2022-09-09T07:32:19;5.13;;;3.00;;
25091;SDS011;13082;52.374;4.946;2022-09-09T07:34:45;5.13;;;3.77;;
25091;SDS011;13082;52.374;4.946;2022-09-09T07:37:12;7.53;;;3.50;;
25091;SDS011;13082;52.374;4.946;2022-09-09T07:39:38;5.03;;;3.67;;
25091;SDS011;13082;52.374;4.946;2022-09-09T07:42:04;8.40;;;3.70;;
25091;SDS011;13082;52.374;4.946;2022-09-09T07:44:30;7.40;;;3.90;;
25091;SDS011;13082;52.374;4.946;2022-09-09T07:46:59;7.10;;;3.60;;
25091;SDS011;13082;52.374;4.946;2022-09-09T07:49:26;7.00;;;4.00;;
25091;SDS011;13082;52.374;4.946;2022-09-09T07:51:51;6.03;;;4.00;;
25091;SDS011;13082;52.374;4.946;2022-09-09T07:54:18;8.30;;;4.27;;
25091;SDS011;13082;52.374;4.946;2022-09-09T07:56:48;8.37;;;4.20;;
25091;SDS011;13082;52.374;4.946;2022-09-09T07:59:14;14.47;;;5.13;;
25091;SDS011;13082;52.374;4.946;2022-09-09T08:01:44;5.00;;;3.67;;
25091;SDS011;13082;52.374;4.946;2022-09-09T08:04:18;9.80;;;5.77;;
25091;SDS011;13082;52.374;4.946;2022-09-09T08:06:46;5.20;;;4.33;;
25091;SDS011;13082;52.374;4.946;2022-09-09T08:09:14;8.93;;;4.10;;
25091;SDS011;13082;52.374;4.946;2022-09-09T08:11:40;8.87;;;4.13;;
25091;SDS011;13082;52.374;4.946;2022-09-09T08:14:07;5.23;;;4.13;;
25091;SDS011;13082;52.374;4.946;2022-09-09T08:16:35;7.63;;;3.80;;
25091;SDS011;13082;52.374;4.946;2022-09-09T08:19:04;6.73;;;4.20;;
25091;SDS011;13082;52.374;4.946;2022-09-09T08:21:31;8.53;;;4.23;;
25091;SDS011;13082;52.374;4.946;2022-09-09T08:23:58;6.37;;;3.93;;
25091;SDS011;13082;52.374;4.946;2022-09-09T08:26:26;12.50;;;4.17;;
25091;SDS011;13082;52.374;4.946;2022-09-09T08:28:54;7.10;;;4.07;;
25091;SDS011;13082;52.374;4.946;2022-09-09T08:31:22;7.70;;;4.40;;
25091;SDS011;13082;52.374;4.946;2022-09-09T08:33:50;7.13;;;4.40;;
25091;SDS011;13082;52.374;4.946;2022-09-09T08:36:19;6.57;;;4.07;;
25091;SDS011;13082;52.374;4.946;2022-09-09T08:38:50;8.93;;;5.00;;
25091;SDS011;13082;52.374;4.946;2022-09-09T08:44:02;9.00;;;4.37;;
25091;SDS011;13082;52.374;4.946;2022-09-09T08:49:35;8.00;;;3.70;;
25091;SDS011;13082;52.374;4.946;2022-09-09T08:52:37;11.00;;;4.50;;
25091;SDS011;13082;52.374;4.946;2022-09-09T08:57:54;5.87;;;4.00;;
25091;SDS011;13082;52.374;4.946;2022-09-09T09:00:21;5.73;;;3.50;;
25091;SDS011;13082;52.374;4.946;2022-09-09T09:05:44;6.10;;;3.60;;
25091;SDS011;13082;52.374;4.946;2022-09-09T09:08:16;6.37;;;3.47;;
25091;SDS011;13082;52.374;4.946;2022-09-09T09:10:58;5.53;;;4.17;;
25091;SDS011;13082;52.374;4.946;2022-09-09T09:15:55;6.50;;;3.77;;
25091;SDS011;13082;52.374;4.946;2022-09-09T09:18:27;9.17;;;4.37;;
25091;SDS011;13082;52.374;4.946;2022-09-09T09:23:42;8.00;;;3.67;;
25091;SDS011;13082;52.374;4.946;2022-09-09T09:26:15;6.50;;;3.20;;
25091;SDS011;13082;52.374;4.946;2022-09-09T09:28:42;9.07;;;4.37;;
25091;SDS011;13082;52.374;4.946;2022-09-09T09:31:09;7.87;;;4.13;;
25091;SDS011;13082;52.374;4.946;2022-09-09T09:36:11;8.27;;;3.80;;
25091;SDS011;13082;52.374;4.946;2022-09-09T09:38:40;5.47;;;3.50;;
25091;SDS011;13082;52.374;4.946;2022-09-09T09:41:16;7.60;;;3.53;;
25091;SDS011;13082;52.374;4.946;2022-09-09T09:43:54;8.77;;;3.63;;
25091;SDS011;13082;52.374;4.946;2022-09-09T09:46:21;6.53;;;3.50;;
25091;SDS011;13082;52.374;4.946;2022-09-09T09:49:01;5.27;;;3.40;;
25091;SDS011;13082;52.374;4.946;2022-09-09T09:51:34;9.43;;;3.13;;
25091;SDS011;13082;52.374;4.946;2022-09-09T09:56:40;7.70;;;2.90;;
25091;SDS011;13082;52.374;4.946;2022-09-09T09:59:19;7.07;;;3.63;;
25091;SDS011;13082;52.374;4.946;2022-09-09T10:01:46;6.63;;;2.87;;
25091;SDS011;13082;52.374;4.946;2022-09-09T10:04:19;7.07;;;3.13;;
25091;SDS011;13082;52.374;4.946;2022-09-09T10:06:48;9.30;;;3.90;;
25091;SDS011;13082;52.374;4.946;2022-09-09T10:09:20;5.33;;;3.47;;
25091;SDS011;13082;52.374;4.946;2022-09-09T10:17:26;9.83;;;3.40;;
25091;SDS011;13082;52.374;4.946;2022-09-09T10:40:46;4.83;;;2.20;;
25091;SDS011;13082;52.374;4.946;2022-09-09T10:42:51;22.13;;;3.63;;
25091;SDS011;13082;52.374;4.946;2022-09-09T10:45:34;8.83;;;2.40;;
25091;SDS011;13082;52.374;4.946;2022-09-09T10:51:05;5.50;;;2.23;;
25091;SDS011;13082;52.374;4.946;2022-09-09T10:53:51;4.37;;;1.70;;
25091;SDS011;13082;52.374;4.946;2022-09-09T10:56:26;5.80;;;2.37;;
25091;SDS011;13082;52.374;4.946;2022-09-09T10:58:56;3.23;;;2.07;;
25091;SDS011;13082;52.374;4.946;2022-09-09T11:01:29;5.77;;;2.07;;
25091;SDS011;13082;52.374;4.946;2022-09-09T11:07:00;5.17;;;2.17;;
25091;SDS011;13082;52.374;4.946;2022-09-09T11:09:33;4.57;;;2.23;;
25091;SDS011;13082;52.374;4.946;2022-09-09T11:12:04;6.10;;;2.50;;
25091;SDS011;13082;52.374;4.946;2022-09-09T11:17:15;3.27;;;2.27;;
25091;SDS011;13082;52.374;4.946;2022-09-09T11:19:45;3.67;;;2.00;;
25091;SDS011;13082;52.374;4.946;2022-09-09T11:24:41;4.57;;;1.93;;
25091;SDS011;13082;52.374;4.946;2022-09-09T11:27:21;5.83;;;1.67;;
25091;SDS011;13082;52.374;4.946;2022-09-09T11:35:35;3.40;;;1.70;;
25091;SDS011;13082;52.374;4.946;2022-09-09T11:40:56;5.13;;;1.90;;
25091;SDS011;13082;52.374;4.946;2022-09-09T11:43:40;5.70;;;2.17;;
25091;SDS011;13082;52.374;4.946;2022-09-09T11:46:11;4.53;;;2.50;;
25091;SDS011;13082;52.374;4.946;2022-09-09T11:48:41;5.63;;;2.30;;
25091;SDS011;13082;52.374;4.946;2022-09-09T11:51:32;2.87;;;1.60;;
25091;SDS011;13082;52.374;4.946;2022-09-09T11:54:01;4.17;;;1.93;;
25091;SDS011;13082;52.374;4.946;2022-09-09T11:56:47;2.40;;;1.93;;
25091;SDS011;13082;52.374;4.946;2022-09-09T11:59:20;3.63;;;1.60;;
25091;SDS011;13082;52.374;4.946;2022-09-09T12:05:23;5.23;;;2.00;;
25091;SDS011;13082;52.374;4.946;2022-09-09T12:10:35;1.97;;;1.20;;
25091;SDS011;13082;52.374;4.946;2022-09-09T12:13:22;1.33;;;1.10;;
25091;SDS011;13082;52.374;4.946;2022-09-09T12:15:50;3.80;;;1.40;;
25091;SDS011;13082;52.374;4.946;2022-09-09T12:21:14;2.10;;;1.90;;
25091;SDS011;13082;52.374;4.946;2022-09-09T12:24:07;6.43;;;2.00;;
25091;SDS011;13082;52.374;4.946;2022-09-09T12:26:43;3.23;;;1.50;;
25091;SDS011;13082;52.374;4.946;2022-09-09T12:32:07;2.97;;;2.07;;
25091;SDS011;13082;52.374;4.946;2022-09-09T12:34:55;4.73;;;2.47;;
25091;SDS011;13082;52.374;4.946;2022-09-09T12:40:20;3.43;;;2.40;;
25091;SDS011;13082;52.374;4.946;2022-09-09T12:42:48;5.50;;;3.00;;
25091;SDS011;13082;52.374;4.946;2022-09-09T12:45:22;3.93;;;2.90;;
25091;SDS011;13082;52.374;4.946;2022-09-09T12:47:56;4.53;;;2.30;;
25091;SDS011;13082;52.374;4.946;2022-09-09T12:50:32;4.77;;;2.63;;
25091;SDS011;13082;52.374;4.946;2022-09-09T12:53:09;4.67;;;2.70;;
25091;SDS011;13082;52.374;4.946;2022-09-09T12:55:49;4.93;;;2.63;;
25091;SDS011;13082;52.374;4.946;2022-09-09T12:58:17;7.00;;;2.77;;
25091;SDS011;13082;52.374;4.946;2022-09-09T13:00:55;6.60;;;2.67;;
25091;SDS011;13082;52.374;4.946;2022-09-09T13:03:22;6.57;;;2.87;;
25091;SDS011;13082;52.374;4.946;2022-09-09T13:05:48;5.20;;;2.83;;
25091;SDS011;13082;52.374;4.946;2022-09-09T13:08:15;5.70;;;3.00;;
25091;SDS011;13082;52.374;4.946;2022-09-09T13:10:59;5.73;;;2.63;;
25091;SDS011;13082;52.374;4.946;2022-09-09T13:15:57;7.13;;;3.53;;
25091;SDS011;13082;52.374;4.946;2022-09-09T13:18:25;5.77;;;3.97;;
25091;SDS011;13082;52.374;4.946;2022-09-09T13:20:54;4.30;;;3.60;;
25091;SDS011;13082;52.374;4.946;2022-09-09T13:23:23;8.97;;;4.00;;
25091;SDS011;13082;52.374;4.946;2022-09-09T13:25:59;5.73;;;4.20;;
25091;SDS011;13082;52.374;4.946;2022-09-09T13:28:27;7.13;;;4.33;;
25091;SDS011;13082;52.374;4.946;2022-09-09T13:30:58;6.10;;;4.13;;
25091;SDS011;13082;52.374;4.946;2022-09-09T13:35:57;6.77;;;3.93;;
25091;SDS011;13082;52.374;4.946;2022-09-09T13:38:30;5.07;;;3.63;;
25091;SDS011;13082;52.374;4.946;2022-09-09T13:43:26;6.57;;;4.03;;
25091;SDS011;13082;52.374;4.946;2022-09-09T13:45:54;6.73;;;3.33;;
25091;SDS011;13082;52.374;4.946;2022-09-09T13:48:21;3.37;;;3.07;;
25091;SDS011;13082;52.374;4.946;2022-09-09T13:50:57;4.40;;;3.70;;
25091;SDS011;13082;52.374;4.946;2022-09-09T13:53:29;6.03;;;3.40;;
25091;SDS011;13082;52.374;4.946;2022-09-09T13:55:56;4.53;;;3.47;;
25091;SDS011;13082;52.374;4.946;2022-09-09T13:58:23;7.50;;;3.50;;
25091;SDS011;13082;52.374;4.946;2022-09-09T14:00:50;4.00;;;3.33;;
25091;SDS011;13082;52.374;4.946;2022-09-09T14:03:17;3.83;;;3.43;;
25091;SDS011;13082;52.374;4.946;2022-09-09T14:05:43;6.67;;;3.50;;
25091;SDS011;13082;52.374;4.946;2022-09-09T14:08:10;8.27;;;3.80;;
25091;SDS011;13082;52.374;4.946;2022-09-09T14:10:49;5.20;;;3.07;;
25091;SDS011;13082;52.374;4.946;2022-09-09T14:13:15;9.67;;;3.10;;
25091;SDS011;13082;52.374;4.946;2022-09-09T14:15:41;5.17;;;3.60;;
25091;SDS011;13082;52.374;4.946;2022-09-09T14:18:09;6.07;;;3.60;;
25091;SDS011;13082;52.374;4.946;2022-09-09T14:20:37;4.00;;;2.70;;
25091;SDS011;13082;52.374;4.946;2022-09-09T14:23:02;5.00;;;3.33;;
25091;SDS011;13082;52.374;4.946;2022-09-09T14:25:28;6.90;;;3.27;;
25091;SDS011;13082;52.374;4.946;2022-09-09T14:27:53;6.13;;;3.40;;
25091;SDS011;13082;52.374;4.946;2022-09-09T14:30:19;6.67;;;2.63;;
25091;SDS011;13082;52.374;4.946;2022-09-09T14:32:45;5.10;;;3.03;;
25091;SDS011;13082;52.374;4.946;2022-09-09T14:35:12;6.27;;;3.17;;
25091;SDS011;13082;52.374;4.946;2022-09-09T14:37:37;4.07;;;2.80;;
25091;SDS011;13082;52.374;4.946;2022-09-09T14:40:04;6.20;;;2.87;;
25091;SDS011;13082;52.374;4.946;2022-09-09T14:42:30;3.23;;;2.40;;
25091;SDS011;13082;52.374;4.946;2022-09-09T14:44:55;3.43;;;2.47;;
25091;SDS011;13082;52.374;4.946;2022-09-09T14:47:21;2.40;;;2.10;;
25091;SDS011;13082;52.374;4.946;2022-09-09T14:49:47;3.30;;;2.10;;
25091;SDS011;13082;52.374;4.946;2022-09-09T14:52:14;3.47;;;2.17;;
25091;SDS011;13082;52.374;4.946;2022-09-09T14:54:41;5.90;;;2.00;;
25091;SDS011;13082;52.374;4.946;2022-09-09T14:57:06;2.67;;;1.90;;
25091;SDS011;13082;52.374;4.946;2022-09-09T14:59:32;1.60;;;1.50;;
25091;SDS011;13082;52.374;4.946;2022-09-09T15:01:59;2.67;;;1.67;;
25091;SDS011;13082;52.374;4.946;2022-09-09T15:04:29;1.67;;;1.37;;
25091;SDS011;13082;52.374;4.946;2022-09-09T15:06:54;1.30;;;1.10;;
25091;SDS011;13082;52.374;4.946;2022-09-09T15:09:20;1.87;;;1.20;;
25091;SDS011;13082;52.374;4.946;2022-09-09T15:11:45;1.13;;;0.90;;
25091;SDS011;13082;52.374;4.946;2022-09-09T15:14:11;2.37;;;1.10;;
25091;SDS011;13082;52.374;4.946;2022-09-09T15:16:37;1.33;;;0.87;;
25091;SDS011;13082;52.374;4.946;2022-09-09T15:19:04;1.47;;;1.00;;
25091;SDS011;13082;52.374;4.946;2022-09-09T15:21:31;4.00;;;0.87;;
25091;SDS011;13082;52.374;4.946;2022-09-09T15:23:59;2.43;;;0.93;;
25091;SDS011;13082;52.374;4.946;2022-09-09T15:26:25;3.23;;;1.07;;
25091;SDS011;13082;52.374;4.946;2022-09-09T15:28:52;3.20;;;1.53;;
25091;SDS011;13082;52.374;4.946;2022-09-09T15:31:19;2.20;;;0.90;;
25091;SDS011;13082;52.374;4.946;2022-09-09T15:33:47;1.43;;;1.00;;
25091;SDS011;13082;52.374;4.946;2022-09-09T15:36:21;2.70;;;1.13;;
25091;SDS011;13082;52.374;4.946;2022-09-09T15:38:49;4.33;;;1.60;;
25091;SDS011;13082;52.374;4.946;2022-09-09T15:41:16;3.33;;;1.23;;
25091;SDS011;13082;52.374;4.946;2022-09-09T15:43:43;2.10;;;1.37;;
25091;SDS011;13082;52.374;4.946;2022-09-09T15:48:50;5.40;;;1.50;;
25091;SDS011;13082;52.374;4.946;2022-09-09T15:51:17;3.80;;;1.60;;
25091;SDS011;13082;52.374;4.946;2022-09-09T15:53:43;1.70;;;1.30;;
25091;SDS011;13082;52.374;4.946;2022-09-09T15:56:09;4.83;;;1.80;;
25091;SDS011;13082;52.374;4.946;2022-09-09T15:58:35;1.77;;;1.33;;
25091;SDS011;13082;52.374;4.946;2022-09-09T16:01:02;6.70;;;2.90;;
25091;SDS011;13082;52.374;4.946;2022-09-09T16:03:29;4.07;;;1.80;;
25091;SDS011;13082;52.374;4.946;2022-09-09T16:05:58;2.63;;;1.70;;
25091;SDS011;13082;52.374;4.946;2022-09-09T16:08:24;4.40;;;2.00;;
25091;SDS011;13082;52.374;4.946;2022-09-09T16:10:56;3.67;;;2.53;;
25091;SDS011;13082;52.374;4.946;2022-09-09T16:13:21;4.17;;;2.50;;
25091;SDS011;13082;52.374;4.946;2022-09-09T16:15:53;3.13;;;2.30;;
25091;SDS011;13082;52.374;4.946;2022-09-09T16:18:19;6.50;;;3.13;;
25091;SDS011;13082;52.374;4.946;2022-09-09T16:20:52;4.13;;;2.47;;
25091;SDS011;13082;52.374;4.946;2022-09-09T16:23:19;3.20;;;2.33;;
25091;SDS011;13082;52.374;4.946;2022-09-09T16:25:52;7.57;;;2.93;;
25091;SDS011;13082;52.374;4.946;2022-09-09T16:28:21;6.27;;;2.83;;
25091;SDS011;13082;52.374;4.946;2022-09-09T16:30:48;5.03;;;3.13;;
25091;SDS011;13082;52.374;4.946;2022-09-09T16:33:14;3.00;;;2.60;;
25091;SDS011;13082;52.374;4.946;2022-09-09T16:35:41;5.40;;;2.50;;
25091;SDS011;13082;52.374;4.946;2022-09-09T16:38:06;5.30;;;2.70;;
25091;SDS011;13082;52.374;4.946;2022-09-09T16:40:36;6.03;;;2.17;;
25091;SDS011;13082;52.374;4.946;2022-09-09T16:43:03;4.00;;;2.03;;
25091;SDS011;13082;52.374;4.946;2022-09-09T16:45:29;3.53;;;1.43;;
25091;SDS011;13082;52.374;4.946;2022-09-09T16:47:55;5.73;;;1.77;;
25091;SDS011;13082;52.374;4.946;2022-09-09T16:50:21;5.93;;;1.80;;
25091;SDS011;13082;52.374;4.946;2022-09-09T16:52:46;5.60;;;1.93;;
25091;SDS011;13082;52.374;4.946;2022-09-09T16:55:12;7.10;;;1.90;;
25091;SDS011;13082;52.374;4.946;2022-09-09T16:57:38;5.47;;;2.17;;
25091;SDS011;13082;52.374;4.946;2022-09-09T17:00:04;4.97;;;1.73;;
25091;SDS011;13082;52.374;4.946;2022-09-09T17:02:31;4.13;;;2.00;;
25091;SDS011;13082;52.374;4.946;2022-09-09T17:04:57;8.90;;;1.80;;
25091;SDS011;13082;52.374;4.946;2022-09-09T17:07:24;5.97;;;2.00;;
25091;SDS011;13082;52.374;4.946;2022-09-09T17:09:50;4.13;;;1.80;;
25091;SDS011;13082;52.374;4.946;2022-09-09T17:12:16;5.70;;;1.77;;
25091;SDS011;13082;52.374;4.946;2022-09-09T17:14:42;2.17;;;1.30;;
25091;SDS011;13082;52.374;4.946;2022-09-09T17:17:08;4.17;;;1.50;;
25091;SDS011;13082;52.374;4.946;2022-09-09T17:19:33;2.33;;;1.20;;
25091;SDS011;13082;52.374;4.946;2022-09-09T17:21:59;6.37;;;1.60;;
25091;SDS011;13082;52.374;4.946;2022-09-09T17:24:26;4.13;;;1.70;;
25091;SDS011;13082;52.374;4.946;2022-09-09T17:26:53;4.33;;;2.00;;
25091;SDS011;13082;52.374;4.946;2022-09-09T17:29:20;3.37;;;1.43;;
25091;SDS011;13082;52.374;4.946;2022-09-09T17:31:46;6.73;;;1.53;;